Alamo, Nevada Weather observations

Data are for observation ending at time listed.
 Day   Time    Ave.   Ave.  Ave.  Vector   Max.   Stn.    Total    Solar   Ave.  
  of    of     Air    Rel.  Wind   Wind    Wind   Baro.  Precip.   Rad.    Soil  
Year   Day     Temp.  Hum.  Speed  Dir.    Gust   Pres.                    Temp. 
2014   (PST)    F      %     mph   deg.    mph     mb.     in.     W/m2     F   
------------------------------------------------------------------------------
 113    8:00   53.2    25    7.5   328     15.6   896.0    0.00     138    56.4
 113    8:10   53.9    25    8.0   339     13.2   896.0    0.00      57    56.4
 113    8:20   54.1    24    7.1   326     13.8   896.1    0.00      48    56.3
 113    8:30   54.0    24    8.3   332     15.7   896.1    0.00      48    56.3
 113    8:40   55.2    24    6.7   332     11.0   896.1    0.00      54    56.2
 113    8:50   55.8    23    7.5   334     13.6   896.1    0.00      54    56.2
 113    9:00   56.0    23    7.8   325     13.9   895.9    0.00      54    56.1
 113    9:10   57.0    21    5.6   325     10.8   896.0    0.00      74    56.2
 113    9:20   57.2    22    7.3   339     16.8   896.1    0.00      73    56.2
 113    9:30   57.6    21    6.4   321     16.1   896.2    0.00     149    56.2
 113    9:40   57.9    20    7.1   320     14.2   896.2    0.00     196    56.3
 113    9:50   58.1    20    6.4   328     13.8   896.2    0.00     147    56.4
 113   10:00   58.8    19    6.2   334     12.4   896.2    0.00     102    56.6
 113   10:10   59.0    18    6.9   336     17.3   896.1    0.00     571    56.9
 113   10:20   59.2    19    5.4   340     10.5   896.1    0.00    1056    57.8
 113   10:30   60.2    18    5.8   336     12.6   896.2    0.00    1079    58.7
 113   10:40   60.7    18    5.5   318     14.1   896.1    0.00    1093    59.5
 113   10:50   61.3    17    5.2   325     15.1   896.0    0.00    1109    60.5
 113   11:00   61.6    16    6.9   333     18.3   895.9    0.00    1123    61.5
 113   11:10   62.0    17    5.6   324     12.1   895.9    0.00    1136    62.2
 113   11:20   61.6    15    4.6   355      9.7   895.7    0.00    1148    62.6
 113   11:30   62.9    16    4.9   331     10.4   895.5    0.00    1154    62.9
 113   11:40   63.6    15    6.4   339     13.1   895.4    0.00    1161    63.0
 113   11:50   63.1    15    5.9   345     12.1   895.3    0.00    1164    63.3
 113   12:00   64.3    15    6.0   324     11.2   895.3    0.00    1166    64.2
 113   12:10   63.9    14    5.6   345     11.3   895.3    0.00    1166    65.5
 113   12:20   64.7    15    4.3   348     11.1   895.2    0.00    1163    66.8
 113   12:30   65.0    14    5.7   333     14.0   895.2    0.00    1156    68.2
 113   12:40   66.3    14    3.4   253     10.4   895.1    0.00    1144    69.3
 113   12:50   66.6    14    4.6   262     11.3   895.0    0.00    1132    70.5
 113   13:00   65.7    14    4.6   342      9.9   894.9    0.00    1127    71.7
 113   13:10   66.9    14    3.1   301      7.2   894.7    0.00    1111    72.6
 113   13:20   67.7    14    3.9   285      9.8   894.6    0.00    1094    73.5
 113   13:30   68.3    14    3.4   242      7.0   894.4    0.00    1074    74.4
 113   13:40   67.7    13    4.2   352     10.8   894.3    0.00    1061    75.2
 113   13:50   68.0    14    3.0   327      9.3   894.1    0.00    1036    75.9
 113   14:00   68.5    13    5.5   329     10.4   894.1    0.00    1019    76.6
 113   14:10   68.7    13    3.9   333      8.6   894.0    0.00     988    77.2
 113   14:20   68.4    13    4.6     6     10.3   893.9    0.00     956    77.7
 113   14:30   67.6    13    4.3    20     10.2   893.8    0.00     925    78.1
 113   14:40   68.7    13    4.7   343     10.7   893.7    0.00     901    78.3
 113   14:50   68.2    12    4.2     3     12.3   893.7    0.00     868    78.6
 113   15:00   68.4    13    4.6   349      9.3   893.6    0.00     838    78.8
 113   15:10   68.3    12    3.6    15      7.7   893.5    0.00     799    78.9
 113   15:20   68.5    13    4.3   355      7.7   893.5    0.00     769    79.0
 113   15:30   68.8    13    2.8   337      6.9   893.4    0.00     731    79.1
 113   15:40   69.5    12    3.6   318      9.4   893.4    0.00     689    78.9
 113   15:50   68.5    12    3.0   295      7.2   893.3    0.00     652    78.4
 113   16:00   69.2    12    2.4   164      5.4   893.3    0.00     612    77.7
 113   16:10   69.0    12    3.4   352      6.9   893.4    0.00     564    76.9
 113   16:20   68.7    12    2.2     7      6.3   893.5    0.00     511    76.1
 113   16:30   69.5    12    1.8    13      4.8   893.4    0.00     459    75.3
 113   16:40   70.2    12    1.9   339      5.8   893.5    0.00     425    74.6
 113   16:50   69.6    12    2.4    16      4.7   893.4    0.00     383    73.9
 113   17:00   69.5    12    3.3   353      6.8   893.4    0.00     323    73.5
 113   17:10   68.7    12    3.5    10      6.0   893.5    0.00     282    72.8
 113   17:20   68.4    12    2.0    48      3.8   893.5    0.00     224    71.9
 113   17:30   68.1    12    0.5    43      1.8   893.4    0.00     203    71.0
 113   17:40   68.3    12    1.4    22      3.4   893.4    0.00     149    70.1
 113   17:50   67.7    13    1.3    27      2.6   893.5    0.00     112    69.4
 113   18:00   67.5    17    0.2    15      1.8   893.5    0.00      74    68.7
 113   18:10   65.6    19    0.3    31      1.1   893.5    0.00      31    68.1
 113   18:20   64.0    22    0.3   356      1.3   893.5    0.00      16    67.5
 113   18:30   62.3    23    0.1   261      0.7   893.6    0.00       3    67.0
 113   18:40   60.8    23    0.1    57      0.7   893.7    0.00       0    66.5
 113   18:50   59.2    25    0.7    12      3.1   893.8    0.00       0    66.0
 113   19:00   58.0    26    0.1   190      0.8   893.9    0.00       0    65.5
 113   19:10   57.0    28    0.0     0      0.0   894.0    0.00       0    64.9
 113   19:20   55.8    30    0.1    22      0.9   894.1    0.00       0    64.5
 113   19:30   55.0    31    0.7     4      1.8   894.2    0.00       0    64.0
 113   19:40   54.8    32    0.6    17      2.0   894.4    0.00       0    63.5
 113   19:50   54.3    28    1.5    26      3.1   894.5    0.00       0    63.1
 113   20:00   54.0    27    0.7    36      1.8   894.7    0.00       0    62.6
 113   20:10   53.4    29    1.0    24      2.4   894.7    0.00       0    62.1
 113   20:20   52.6    31    1.3   354      2.0   894.9    0.00       0    61.6
 113   20:30   52.1    33    0.8     2      1.2   895.0    0.00       0    61.2
 113   20:40   50.9    35    0.9    22      1.5   895.0    0.00       0    60.8
 113   20:50   49.9    37    0.0    52      0.7   895.1    0.00       0    60.4
 113   21:00   49.0    38    0.5    28      1.5   895.2    0.00       0    60.0
 113   21:10   48.6    36    0.6    18      1.2   895.3    0.00       0    59.7
 113   21:20   48.4    38    0.5    32      1.6   895.5    0.00       0    59.3
 113   21:30   47.7    44    0.7   201      1.3   895.5    0.00       0    59.0
 113   21:40   47.4    40    0.1   202      0.6   895.6    0.00       0    58.7
 113   21:50   47.3    41    0.3   185      1.2   895.6    0.00       0    58.4
 113   22:00   47.2    40    0.0    67      0.5   895.6    0.00       0    58.1
 113   22:10   46.7    40    0.0   211      0.7   895.7    0.00       0    57.8
 113   22:20   46.9    38    0.7    50      2.1   895.8    0.00       0    57.6
 113   22:30   47.3    37    0.8   355      1.8   895.8    0.00       0    57.3
 113   22:40   47.4    36    1.0   337      1.8   895.8    0.00       0    57.1
 113   22:50   47.1    34    0.3    44      1.3   895.9    0.00       0    56.9
 113   23:00   46.5    36    0.6    17      1.7   895.9    0.00       0    56.6
 113   23:10   45.8    40    0.3    60      1.5   896.1    0.00       0    56.4
 113   23:20   45.5    45    0.3   191      1.2   896.2    0.00       0    56.2
 113   23:30   45.4    43    0.9    15      2.3   896.2    0.00       0    56.0
 113   23:40   45.9    36    0.6    30      2.0   896.3    0.00       0    55.8
 113   23:50   46.4    35    1.2   355      2.0   896.3    0.00       0    55.6
 114    0:00   46.6    32    1.8   345      3.3   896.3    0.00       0    55.4
 114    0:10   46.4    33    0.7    36      1.6   896.3    0.00       0    55.2
 114    0:20   45.9    34    0.7    36      1.2   896.3    0.00       0    55.1
 114    0:30   45.3    36    1.5    61      2.6   896.3    0.00       0    54.9
 114    0:40   45.1    39    0.5    42      1.5   896.2    0.00       0    54.7
 114    0:50   44.5    41    0.5   218      1.0   896.2    0.00       0    54.5
 114    1:00   44.3    40    0.3   275      1.3   896.3    0.00       0    54.3
 114    1:10   43.8    43    0.0     0      0.0   896.4    0.00       0    54.2
 114    1:20   43.3    42    0.3     1      1.1   896.3    0.00       0    54.0
 114    1:30   43.1    45    0.1   343      1.4   896.3    0.00       0    53.9
 114    1:40   43.2    39    1.2   321      2.0   896.2    0.00       0    53.7
 114    1:50   42.8    42    1.0    51      1.9   896.3    0.00       0    53.5
 114    2:00   41.7    47    1.3    11      2.6   896.4    0.00       0    53.3
 114    2:10   42.0    44    0.4   344      1.2   896.5    0.00       0    53.1
 114    2:20   41.6    44    0.2   319      0.9   896.4    0.00       0    52.9
 114    2:30   41.1    37    0.3   300      1.5   896.5    0.00       0    52.7
 114    2:40   40.8    40    0.3    20      1.2   896.4    0.00       0    52.5
 114    2:50   40.4    44    0.3     3      0.8   896.4    0.00       0    52.4
 114    3:00   40.1    45    0.4    40      1.3   896.4    0.00       0    52.2
 114    3:10   39.7    47    0.1   304      0.6   896.3    0.00       0    52.0
 114    3:20   39.4    46    0.6   334      1.4   896.4    0.00       0    51.8
 114    3:30   39.1    45    0.3    23      1.4   896.4    0.00       0    51.6
 114    3:40   38.3    50    0.8    13      1.7   896.5    0.00       0    51.5
 114    3:50   38.0    51    0.3    33      1.2   896.5    0.00       0    51.3
 114    4:00   37.9    52    0.5   293      1.6   896.5    0.00       0    51.1
 114    4:10   37.9    49    1.2    53      2.6   896.5    0.00       0    50.9
 114    4:20   37.6    54    1.0    20      2.3   896.5    0.00       0    50.8
 114    4:30   37.5    52    0.9    23      1.5   896.5    0.00       0    50.6
 114    4:40   37.0    54    1.9    10      3.4   896.7    0.00       0    50.4
 114    4:50   36.6    53    1.4    62      2.7   896.7    0.00       0    50.2
 114    5:00   36.8    54    0.9   322      1.6   896.7    0.00       0    50.0
 114    5:10   36.7    52    0.9   359      1.7   896.8    0.00       4    49.8
 114    5:20   36.6    52    1.7    47      2.6   896.9    0.00      14    49.7
 114    5:30   37.0    51    1.0   347      2.9   897.0    0.00      16    49.5
 114    5:40   38.0    48    0.4    17      1.5   897.0    0.00      70    49.4
 114    5:50   40.0    45    1.1    19      1.7   897.1    0.00     122    49.2
 114    6:00   40.8    42    1.8    32      2.6   897.1    0.00     143    49.1
 114    6:10   42.2    38    1.3    23      2.6   897.1    0.00     132    49.2
 114    6:20   44.2    34    1.8    20      3.1   897.3    0.00      78    49.3
 114    6:30   45.3    32    2.7    19      5.2   897.4    0.00      64    49.5
 114    6:40   46.7    29    1.7    34      2.7   897.4    0.00      62    49.7
 114    6:50   49.0    27    1.9   351      3.9   897.4    0.00     133    49.9
 114    7:00   50.6    25    2.1   356      3.7   897.4    0.00      67    49.9
 114    7:10   51.5    24    2.4   351      4.6   897.4    0.00      45    50.0
 114    7:20   52.3    25    2.1     6      5.0   897.5    0.00      45    50.0
 114    7:30   52.9    24    2.1     1      3.9   897.4    0.00      69    50.0
 114    7:40   53.9    23    0.7   298      2.1   897.4    0.00      97    50.0
 114    7:50   55.2    22    0.6   329      2.9   897.3    0.00     100    50.1

Return to Alamo, Nevada graphs page.


Western Regional Climate Center,wrcc@dri.edu